sensor_id;sensor_type;location;lat;lon;timestamp;temperature;humidity
16076;DHT22;8142;48.242;11.644;2022-07-06T00:01:35;17.70;99.90
16076;DHT22;8142;48.242;11.644;2022-07-06T00:04:02;17.60;99.90
16076;DHT22;8142;48.242;11.644;2022-07-06T00:06:28;17.70;99.90
16076;DHT22;8142;48.242;11.644;2022-07-06T00:08:54;17.70;99.90
16076;DHT22;8142;48.242;11.644;2022-07-06T00:11:20;17.70;99.90
16076;DHT22;8142;48.242;11.644;2022-07-06T00:13:46;17.80;99.90
16076;DHT22;8142;48.242;11.644;2022-07-06T00:16:12;17.90;99.90
16076;DHT22;8142;48.242;11.644;2022-07-06T00:18:38;17.80;99.90
16076;DHT22;8142;48.242;11.644;2022-07-06T00:21:04;17.80;99.90
16076;DHT22;8142;48.242;11.644;2022-07-06T00:23:30;17.80;99.90
16076;DHT22;8142;48.242;11.644;2022-07-06T00:25:56;17.80;99.90
16076;DHT22;8142;48.242;11.644;2022-07-06T00:28:21;17.80;99.90
16076;DHT22;8142;48.242;11.644;2022-07-06T00:30:47;17.80;99.90
16076;DHT22;8142;48.242;11.644;2022-07-06T00:33:13;17.80;99.90
16076;DHT22;8142;48.242;11.644;2022-07-06T00:35:39;17.70;99.90
16076;DHT22;8142;48.242;11.644;2022-07-06T00:38:05;17.70;99.90
16076;DHT22;8142;48.242;11.644;2022-07-06T00:40:31;17.70;99.90
16076;DHT22;8142;48.242;11.644;2022-07-06T00:42:57;17.70;99.90
16076;DHT22;8142;48.242;11.644;2022-07-06T00:45:23;17.70;99.90
16076;DHT22;8142;48.242;11.644;2022-07-06T00:47:49;17.70;99.90
16076;DHT22;8142;48.242;11.644;2022-07-06T00:50:17;17.70;99.90
16076;DHT22;8142;48.242;11.644;2022-07-06T00:52:51;17.60;99.90
16076;DHT22;8142;48.242;11.644;2022-07-06T00:55:21;17.60;99.90
16076;DHT22;8142;48.242;11.644;2022-07-06T00:57:48;17.60;99.90
16076;DHT22;8142;48.242;11.644;2022-07-06T01:00:16;17.60;99.90
16076;DHT22;8142;48.242;11.644;2022-07-06T01:02:43;17.60;99.90
16076;DHT22;8142;48.242;11.644;2022-07-06T01:05:11;17.50;99.90
16076;DHT22;8142;48.242;11.644;2022-07-06T01:07:39;17.50;99.90
16076;DHT22;8142;48.242;11.644;2022-07-06T01:10:07;17.50;99.90
16076;DHT22;8142;48.242;11.644;2022-07-06T01:12:38;17.40;99.90
16076;DHT22;8142;48.242;11.644;2022-07-06T01:15:06;17.40;99.90
16076;DHT22;8142;48.242;11.644;2022-07-06T01:17:33;17.40;99.90
16076;DHT22;8142;48.242;11.644;2022-07-06T01:22:41;17.40;99.90
16076;DHT22;8142;48.242;11.644;2022-07-06T01:25:07;17.40;99.90
16076;DHT22;8142;48.242;11.644;2022-07-06T01:27:38;17.40;99.90
16076;DHT22;8142;48.242;11.644;2022-07-06T01:30:08;17.40;99.90
16076;DHT22;8142;48.242;11.644;2022-07-06T01:32:35;17.40;99.90
16076;DHT22;8142;48.242;11.644;2022-07-06T01:35:02;17.40;99.90
16076;DHT22;8142;48.242;11.644;2022-07-06T01:37:28;17.40;99.90
16076;DHT22;8142;48.242;11.644;2022-07-06T01:39:57;17.40;99.90
16076;DHT22;8142;48.242;11.644;2022-07-06T01:42:23;17.40;99.90
16076;DHT22;8142;48.242;11.644;2022-07-06T01:44:49;17.40;99.90
16076;DHT22;8142;48.242;11.644;2022-07-06T01:47:14;17.40;99.90
16076;DHT22;8142;48.242;11.644;2022-07-06T01:49:40;17.40;99.90
16076;DHT22;8142;48.242;11.644;2022-07-06T01:52:06;17.40;99.90
16076;DHT22;8142;48.242;11.644;2022-07-06T01:54:32;17.40;99.90
16076;DHT22;8142;48.242;11.644;2022-07-06T01:56:58;17.30;99.90
16076;DHT22;8142;48.242;11.644;2022-07-06T01:59:24;17.30;99.90
16076;DHT22;8142;48.242;11.644;2022-07-06T02:01:50;17.30;99.90
16076;DHT22;8142;48.242;11.644;2022-07-06T02:04:16;17.20;99.90
16076;DHT22;8142;48.242;11.644;2022-07-06T02:06:42;17.20;99.90
16076;DHT22;8142;48.242;11.644;2022-07-06T02:09:08;17.20;99.90
16076;DHT22;8142;48.242;11.644;2022-07-06T02:11:34;17.10;99.90
16076;DHT22;8142;48.242;11.644;2022-07-06T02:14:00;17.10;99.90
16076;DHT22;8142;48.242;11.644;2022-07-06T02:16:26;17.00;99.90
16076;DHT22;8142;48.242;11.644;2022-07-06T02:18:51;17.00;99.90
16076;DHT22;8142;48.242;11.644;2022-07-06T02:21:17;17.00;99.90
16076;DHT22;8142;48.242;11.644;2022-07-06T02:23:43;17.00;99.90
16076;DHT22;8142;48.242;11.644;2022-07-06T02:26:09;16.90;99.90
16076;DHT22;8142;48.242;11.644;2022-07-06T02:28:35;16.90;99.90
16076;DHT22;8142;48.242;11.644;2022-07-06T02:31:01;16.80;99.90
16076;DHT22;8142;48.242;11.644;2022-07-06T02:33:27;16.80;99.90
16076;DHT22;8142;48.242;11.644;2022-07-06T02:35:53;16.80;99.90
16076;DHT22;8142;48.242;11.644;2022-07-06T02:38:19;16.80;99.90
16076;DHT22;8142;48.242;11.644;2022-07-06T02:40:45;16.80;99.90
16076;DHT22;8142;48.242;11.644;2022-07-06T02:43:11;16.80;99.90
16076;DHT22;8142;48.242;11.644;2022-07-06T02:45:37;16.80;99.90
16076;DHT22;8142;48.242;11.644;2022-07-06T02:48:03;16.70;99.90
16076;DHT22;8142;48.242;11.644;2022-07-06T02:50:29;16.70;99.90
16076;DHT22;8142;48.242;11.644;2022-07-06T02:52:55;16.70;99.90
16076;DHT22;8142;48.242;11.644;2022-07-06T02:55:21;16.70;99.90
16076;DHT22;8142;48.242;11.644;2022-07-06T02:57:47;16.70;99.90
16076;DHT22;8142;48.242;11.644;2022-07-06T03:00:13;16.60;99.90
16076;DHT22;8142;48.242;11.644;2022-07-06T03:02:39;16.60;99.90
16076;DHT22;8142;48.242;11.644;2022-07-06T03:05:06;16.60;99.90
16076;DHT22;8142;48.242;11.644;2022-07-06T03:07:32;16.60;99.90
16076;DHT22;8142;48.242;11.644;2022-07-06T03:09:58;16.50;99.90
16076;DHT22;8142;48.242;11.644;2022-07-06T03:12:24;16.30;99.90
16076;DHT22;8142;48.242;11.644;2022-07-06T03:14:49;16.20;99.90
16076;DHT22;8142;48.242;11.644;2022-07-06T03:17:15;16.20;99.90
16076;DHT22;8142;48.242;11.644;2022-07-06T03:19:41;16.00;99.90
16076;DHT22;8142;48.242;11.644;2022-07-06T03:22:07;15.90;99.90
16076;DHT22;8142;48.242;11.644;2022-07-06T03:24:33;15.70;99.90
16076;DHT22;8142;48.242;11.644;2022-07-06T03:26:59;15.70;99.90
16076;DHT22;8142;48.242;11.644;2022-07-06T03:29:25;15.60;99.90
16076;DHT22;8142;48.242;11.644;2022-07-06T03:31:51;15.60;99.90
16076;DHT22;8142;48.242;11.644;2022-07-06T03:34:17;15.50;99.90
16076;DHT22;8142;48.242;11.644;2022-07-06T03:36:43;15.50;99.90
16076;DHT22;8142;48.242;11.644;2022-07-06T03:39:08;15.50;99.90
16076;DHT22;8142;48.242;11.644;2022-07-06T03:41:34;15.50;99.90
16076;DHT22;8142;48.242;11.644;2022-07-06T03:44:00;15.60;99.90
16076;DHT22;8142;48.242;11.644;2022-07-06T03:46:27;15.70;99.90
16076;DHT22;8142;48.242;11.644;2022-07-06T03:48:53;15.80;99.90
16076;DHT22;8142;48.242;11.644;2022-07-06T03:51:19;15.90;99.90
16076;DHT22;8142;48.242;11.644;2022-07-06T03:53:45;15.90;99.90
16076;DHT22;8142;48.242;11.644;2022-07-06T03:56:11;16.00;99.90
16076;DHT22;8142;48.242;11.644;2022-07-06T03:59:00;16.10;99.90
16076;DHT22;8142;48.242;11.644;2022-07-06T04:01:27;16.20;99.90
16076;DHT22;8142;48.242;11.644;2022-07-06T04:03:53;16.20;99.90
16076;DHT22;8142;48.242;11.644;2022-07-06T04:06:19;16.20;99.90
16076;DHT22;8142;48.242;11.644;2022-07-06T04:08:45;16.30;99.90
16076;DHT22;8142;48.242;11.644;2022-07-06T04:11:11;16.40;99.90
16076;DHT22;8142;48.242;11.644;2022-07-06T04:13:37;16.40;99.90
16076;DHT22;8142;48.242;11.644;2022-07-06T04:16:05;16.40;99.90
16076;DHT22;8142;48.242;11.644;2022-07-06T04:18:32;16.50;99.90
16076;DHT22;8142;48.242;11.644;2022-07-06T04:20:57;16.50;99.90
16076;DHT22;8142;48.242;11.644;2022-07-06T04:23:24;16.60;99.90
16076;DHT22;8142;48.242;11.644;2022-07-06T04:25:50;16.60;99.90
16076;DHT22;8142;48.242;11.644;2022-07-06T04:28:16;16.60;99.90
16076;DHT22;8142;48.242;11.644;2022-07-06T04:30:42;16.70;99.90
16076;DHT22;8142;48.242;11.644;2022-07-06T04:33:08;16.80;99.90
16076;DHT22;8142;48.242;11.644;2022-07-06T04:35:34;16.90;99.90
16076;DHT22;8142;48.242;11.644;2022-07-06T04:38:00;16.90;99.90
16076;DHT22;8142;48.242;11.644;2022-07-06T04:40:25;17.00;99.90
16076;DHT22;8142;48.242;11.644;2022-07-06T04:42:51;17.10;99.90
16076;DHT22;8142;48.242;11.644;2022-07-06T04:45:17;17.10;99.90
16076;DHT22;8142;48.242;11.644;2022-07-06T04:47:43;17.20;99.90
16076;DHT22;8142;48.242;11.644;2022-07-06T04:50:10;17.30;99.90
16076;DHT22;8142;48.242;11.644;2022-07-06T04:52:36;17.30;99.90
16076;DHT22;8142;48.242;11.644;2022-07-06T04:55:03;17.50;99.90
16076;DHT22;8142;48.242;11.644;2022-07-06T04:57:32;17.60;99.90
16076;DHT22;8142;48.242;11.644;2022-07-06T04:59:58;17.60;99.90
16076;DHT22;8142;48.242;11.644;2022-07-06T05:02:24;17.80;99.90
16076;DHT22;8142;48.242;11.644;2022-07-06T05:04:50;17.90;99.90
16076;DHT22;8142;48.242;11.644;2022-07-06T05:07:16;18.00;99.90
16076;DHT22;8142;48.242;11.644;2022-07-06T05:09:42;18.00;99.90
16076;DHT22;8142;48.242;11.644;2022-07-06T05:12:09;18.10;99.90
16076;DHT22;8142;48.242;11.644;2022-07-06T05:14:35;18.00;99.90
16076;DHT22;8142;48.242;11.644;2022-07-06T05:17:02;18.00;99.90
16076;DHT22;8142;48.242;11.644;2022-07-06T05:19:28;17.90;99.90
16076;DHT22;8142;48.242;11.644;2022-07-06T05:21:54;17.80;99.90
16076;DHT22;8142;48.242;11.644;2022-07-06T05:24:20;17.90;99.90
16076;DHT22;8142;48.242;11.644;2022-07-06T05:26:46;17.90;99.90
16076;DHT22;8142;48.242;11.644;2022-07-06T05:29:12;17.90;99.90
16076;DHT22;8142;48.242;11.644;2022-07-06T05:31:38;18.00;99.90
16076;DHT22;8142;48.242;11.644;2022-07-06T05:34:04;18.10;99.90
16076;DHT22;8142;48.242;11.644;2022-07-06T05:36:29;18.30;99.90
16076;DHT22;8142;48.242;11.644;2022-07-06T05:38:55;18.60;99.90
16076;DHT22;8142;48.242;11.644;2022-07-06T05:41:21;18.90;99.90
16076;DHT22;8142;48.242;11.644;2022-07-06T05:43:47;19.30;99.90
16076;DHT22;8142;48.242;11.644;2022-07-06T05:46:13;19.80;99.90
16076;DHT22;8142;48.242;11.644;2022-07-06T05:48:39;20.20;99.90
16076;DHT22;8142;48.242;11.644;2022-07-06T05:51:24;20.50;99.90
16076;DHT22;8142;48.242;11.644;2022-07-06T05:53:50;20.90;99.90
16076;DHT22;8142;48.242;11.644;2022-07-06T05:56:16;21.20;99.90
16076;DHT22;8142;48.242;11.644;2022-07-06T05:58:41;21.40;99.90
16076;DHT22;8142;48.242;11.644;2022-07-06T06:01:07;21.60;99.90
16076;DHT22;8142;48.242;11.644;2022-07-06T06:03:34;21.80;99.90
16076;DHT22;8142;48.242;11.644;2022-07-06T06:06:00;22.00;99.90
16076;DHT22;8142;48.242;11.644;2022-07-06T06:08:26;22.10;99.90
16076;DHT22;8142;48.242;11.644;2022-07-06T06:10:53;22.20;99.90
16076;DHT22;8142;48.242;11.644;2022-07-06T06:13:19;22.30;99.90
16076;DHT22;8142;48.242;11.644;2022-07-06T06:15:45;22.50;99.90
16076;DHT22;8142;48.242;11.644;2022-07-06T06:18:11;22.60;99.90
16076;DHT22;8142;48.242;11.644;2022-07-06T06:20:37;22.70;99.90
16076;DHT22;8142;48.242;11.644;2022-07-06T06:23:03;22.80;99.90
16076;DHT22;8142;48.242;11.644;2022-07-06T06:25:34;22.90;99.90
16076;DHT22;8142;48.242;11.644;2022-07-06T06:28:02;23.00;99.90
16076;DHT22;8142;48.242;11.644;2022-07-06T06:30:28;23.10;99.90
16076;DHT22;8142;48.242;11.644;2022-07-06T06:33:15;23.20;99.90
16076;DHT22;8142;48.242;11.644;2022-07-06T06:35:46;23.30;99.90
16076;DHT22;8142;48.242;11.644;2022-07-06T06:38:12;23.40;99.90
16076;DHT22;8142;48.242;11.644;2022-07-06T06:40:39;23.50;99.90
16076;DHT22;8142;48.242;11.644;2022-07-06T06:43:04;23.60;99.90
16076;DHT22;8142;48.242;11.644;2022-07-06T06:45:30;23.70;99.90
16076;DHT22;8142;48.242;11.644;2022-07-06T06:47:56;23.70;99.90
16076;DHT22;8142;48.242;11.644;2022-07-06T06:50:23;23.70;99.90
16076;DHT22;8142;48.242;11.644;2022-07-06T06:52:50;23.70;99.90
16076;DHT22;8142;48.242;11.644;2022-07-06T06:55:16;23.80;99.90
16076;DHT22;8142;48.242;11.644;2022-07-06T06:57:42;23.90;99.80
16076;DHT22;8142;48.242;11.644;2022-07-06T07:00:09;24.10;99.30
16076;DHT22;8142;48.242;11.644;2022-07-06T07:02:35;24.20;99.00
16076;DHT22;8142;48.242;11.644;2022-07-06T07:05:01;24.40;98.60
16076;DHT22;8142;48.242;11.644;2022-07-06T07:07:27;24.60;98.00
16076;DHT22;8142;48.242;11.644;2022-07-06T07:09:53;24.70;97.70
16076;DHT22;8142;48.242;11.644;2022-07-06T07:12:19;24.80;97.30
16076;DHT22;8142;48.242;11.644;2022-07-06T07:14:45;25.00;97.20
16076;DHT22;8142;48.242;11.644;2022-07-06T07:17:11;25.10;96.80
16076;DHT22;8142;48.242;11.644;2022-07-06T07:19:37;25.30;96.30
16076;DHT22;8142;48.242;11.644;2022-07-06T07:22:03;25.40;96.70
16076;DHT22;8142;48.242;11.644;2022-07-06T07:24:30;25.60;96.70
16076;DHT22;8142;48.242;11.644;2022-07-06T07:26:55;25.60;96.30
16076;DHT22;8142;48.242;11.644;2022-07-06T07:29:21;25.70;96.40
16076;DHT22;8142;48.242;11.644;2022-07-06T07:31:47;25.80;96.10
16076;DHT22;8142;48.242;11.644;2022-07-06T07:34:14;25.80;95.80
16076;DHT22;8142;48.242;11.644;2022-07-06T07:36:40;25.80;96.10
16076;DHT22;8142;48.242;11.644;2022-07-06T07:39:05;25.80;95.60
16076;DHT22;8142;48.242;11.644;2022-07-06T07:41:31;25.80;94.90
16076;DHT22;8142;48.242;11.644;2022-07-06T07:43:57;25.70;94.90
16076;DHT22;8142;48.242;11.644;2022-07-06T07:46:23;25.70;95.40
16076;DHT22;8142;48.242;11.644;2022-07-06T07:48:49;25.80;95.90
16076;DHT22;8142;48.242;11.644;2022-07-06T07:51:15;25.90;96.10
16076;DHT22;8142;48.242;11.644;2022-07-06T07:53:41;26.00;95.30
16076;DHT22;8142;48.242;11.644;2022-07-06T07:56:07;26.00;95.00
16076;DHT22;8142;48.242;11.644;2022-07-06T07:58:33;26.20;95.00
16076;DHT22;8142;48.242;11.644;2022-07-06T08:00:59;26.30;94.80
16076;DHT22;8142;48.242;11.644;2022-07-06T08:03:26;26.40;94.60
16076;DHT22;8142;48.242;11.644;2022-07-06T08:05:52;26.50;94.80
16076;DHT22;8142;48.242;11.644;2022-07-06T08:08:18;26.50;95.00
16076;DHT22;8142;48.242;11.644;2022-07-06T08:10:44;26.50;94.50
16076;DHT22;8142;48.242;11.644;2022-07-06T08:13:10;26.60;94.60
16076;DHT22;8142;48.242;11.644;2022-07-06T08:15:37;26.60;94.50
16076;DHT22;8142;48.242;11.644;2022-07-06T08:18:03;26.70;94.40
16076;DHT22;8142;48.242;11.644;2022-07-06T08:20:29;26.70;94.90
16076;DHT22;8142;48.242;11.644;2022-07-06T08:22:56;26.80;94.70
16076;DHT22;8142;48.242;11.644;2022-07-06T08:25:21;26.70;94.30
16076;DHT22;8142;48.242;11.644;2022-07-06T08:27:47;26.70;94.50
16076;DHT22;8142;48.242;11.644;2022-07-06T08:30:14;26.60;93.40
16076;DHT22;8142;48.242;11.644;2022-07-06T08:32:43;26.60;93.70
16076;DHT22;8142;48.242;11.644;2022-07-06T08:35:10;26.60;93.60
16076;DHT22;8142;48.242;11.644;2022-07-06T08:37:36;26.60;93.90
16076;DHT22;8142;48.242;11.644;2022-07-06T08:40:03;26.60;93.60
16076;DHT22;8142;48.242;11.644;2022-07-06T08:42:31;26.50;93.00
16076;DHT22;8142;48.242;11.644;2022-07-06T08:44:59;26.60;93.10
16076;DHT22;8142;48.242;11.644;2022-07-06T08:47:27;26.60;92.50
16076;DHT22;8142;48.242;11.644;2022-07-06T08:49:54;26.70;92.60
16076;DHT22;8142;48.242;11.644;2022-07-06T08:52:22;26.70;92.80
16076;DHT22;8142;48.242;11.644;2022-07-06T08:54:48;26.80;92.60
16076;DHT22;8142;48.242;11.644;2022-07-06T08:57:15;26.80;92.00
16076;DHT22;8142;48.242;11.644;2022-07-06T08:59:41;26.90;91.90
16076;DHT22;8142;48.242;11.644;2022-07-06T09:02:10;27.00;91.80
16076;DHT22;8142;48.242;11.644;2022-07-06T09:04:37;27.00;91.80
16076;DHT22;8142;48.242;11.644;2022-07-06T09:07:03;26.90;92.20
16076;DHT22;8142;48.242;11.644;2022-07-06T09:09:30;26.80;91.70
16076;DHT22;8142;48.242;11.644;2022-07-06T09:12:00;26.60;92.10
16076;DHT22;8142;48.242;11.644;2022-07-06T09:14:26;26.40;92.70
16076;DHT22;8142;48.242;11.644;2022-07-06T09:17:05;26.20;92.90
16076;DHT22;8142;48.242;11.644;2022-07-06T09:19:32;26.00;92.70
16076;DHT22;8142;48.242;11.644;2022-07-06T09:21:58;25.90;93.00
16076;DHT22;8142;48.242;11.644;2022-07-06T09:24:24;25.70;93.00
16076;DHT22;8142;48.242;11.644;2022-07-06T09:26:55;25.60;93.00
16076;DHT22;8142;48.242;11.644;2022-07-06T09:29:31;25.50;93.60
16076;DHT22;8142;48.242;11.644;2022-07-06T09:32:02;25.40;93.10
16076;DHT22;8142;48.242;11.644;2022-07-06T09:34:47;25.30;93.30
16076;DHT22;8142;48.242;11.644;2022-07-06T09:37:13;25.20;93.50
16076;DHT22;8142;48.242;11.644;2022-07-06T09:39:39;25.10;93.20
16076;DHT22;8142;48.242;11.644;2022-07-06T09:42:06;25.00;93.50
16076;DHT22;8142;48.242;11.644;2022-07-06T09:44:40;25.00;93.50
16076;DHT22;8142;48.242;11.644;2022-07-06T09:47:10;24.90;94.60
16076;DHT22;8142;48.242;11.644;2022-07-06T09:49:38;24.80;93.70
16076;DHT22;8142;48.242;11.644;2022-07-06T09:52:07;24.80;94.00
16076;DHT22;8142;48.242;11.644;2022-07-06T09:54:34;24.70;94.20
16076;DHT22;8142;48.242;11.644;2022-07-06T09:57:01;24.70;94.70
16076;DHT22;8142;48.242;11.644;2022-07-06T09:59:29;24.60;94.10
16076;DHT22;8142;48.242;11.644;2022-07-06T10:01:57;24.50;93.70
16076;DHT22;8142;48.242;11.644;2022-07-06T10:04:24;24.50;94.20
16076;DHT22;8142;48.242;11.644;2022-07-06T10:06:52;24.50;94.30
16076;DHT22;8142;48.242;11.644;2022-07-06T10:09:22;24.50;95.30
16076;DHT22;8142;48.242;11.644;2022-07-06T10:11:56;24.60;94.60
16076;DHT22;8142;48.242;11.644;2022-07-06T10:14:24;24.60;94.60
16076;DHT22;8142;48.242;11.644;2022-07-06T10:16:51;24.60;94.30
16076;DHT22;8142;48.242;11.644;2022-07-06T10:19:20;24.60;94.10
16076;DHT22;8142;48.242;11.644;2022-07-06T10:21:47;24.60;94.50
16076;DHT22;8142;48.242;11.644;2022-07-06T10:24:14;24.60;94.60
16076;DHT22;8142;48.242;11.644;2022-07-06T10:26:41;24.60;93.50
16076;DHT22;8142;48.242;11.644;2022-07-06T10:29:07;24.50;91.70
16076;DHT22;8142;48.242;11.644;2022-07-06T10:31:36;24.50;92.00
16076;DHT22;8142;48.242;11.644;2022-07-06T10:34:07;24.50;93.10
16076;DHT22;8142;48.242;11.644;2022-07-06T10:36:42;24.50;93.20
16076;DHT22;8142;48.242;11.644;2022-07-06T10:39:10;24.40;93.70
16076;DHT22;8142;48.242;11.644;2022-07-06T10:41:56;24.40;93.80
16076;DHT22;8142;48.242;11.644;2022-07-06T10:44:23;24.40;96.80
16076;DHT22;8142;48.242;11.644;2022-07-06T10:46:54;24.40;99.20
16076;DHT22;8142;48.242;11.644;2022-07-06T10:49:21;24.40;94.30
16076;DHT22;8142;48.242;11.644;2022-07-06T10:51:47;24.40;94.00
16076;DHT22;8142;48.242;11.644;2022-07-06T10:54:15;24.40;93.90
16076;DHT22;8142;48.242;11.644;2022-07-06T10:56:46;24.40;93.70
16076;DHT22;8142;48.242;11.644;2022-07-06T11:01:39;24.40;94.40
16076;DHT22;8142;48.242;11.644;2022-07-06T11:04:08;24.50;95.00
16076;DHT22;8142;48.242;11.644;2022-07-06T11:06:39;24.50;94.40
16076;DHT22;8142;48.242;11.644;2022-07-06T11:09:06;24.50;94.00
16076;DHT22;8142;48.242;11.644;2022-07-06T11:14:14;24.40;94.10
16076;DHT22;8142;48.242;11.644;2022-07-06T11:24:12;24.40;93.00
16076;DHT22;8142;48.242;11.644;2022-07-06T11:26:38;24.40;93.30
16076;DHT22;8142;48.242;11.644;2022-07-06T11:29:05;24.30;93.40
16076;DHT22;8142;48.242;11.644;2022-07-06T11:31:37;24.40;92.80
16076;DHT22;8142;48.242;11.644;2022-07-06T11:34:05;24.40;92.40
16076;DHT22;8142;48.242;11.644;2022-07-06T11:36:31;24.50;93.70
16076;DHT22;8142;48.242;11.644;2022-07-06T11:38:57;24.50;93.30
16076;DHT22;8142;48.242;11.644;2022-07-06T11:41:23;24.50;93.20
16076;DHT22;8142;48.242;11.644;2022-07-06T11:43:49;24.60;93.30
16076;DHT22;8142;48.242;11.644;2022-07-06T11:46:24;24.60;93.80
16076;DHT22;8142;48.242;11.644;2022-07-06T11:48:56;24.70;92.80
16076;DHT22;8142;48.242;11.644;2022-07-06T11:51:26;24.70;92.50
16076;DHT22;8142;48.242;11.644;2022-07-06T11:53:54;24.80;92.60
16076;DHT22;8142;48.242;11.644;2022-07-06T11:56:21;24.80;92.30
16076;DHT22;8142;48.242;11.644;2022-07-06T11:58:53;24.80;93.20
16076;DHT22;8142;48.242;11.644;2022-07-06T12:01:19;24.80;92.40
16076;DHT22;8142;48.242;11.644;2022-07-06T12:03:45;24.70;92.60
16076;DHT22;8142;48.242;11.644;2022-07-06T12:06:23;24.70;93.30
16076;DHT22;8142;48.242;11.644;2022-07-06T12:08:51;24.70;92.40
16076;DHT22;8142;48.242;11.644;2022-07-06T12:11:28;24.70;92.60
16076;DHT22;8142;48.242;11.644;2022-07-06T12:13:57;24.70;93.40
16076;DHT22;8142;48.242;11.644;2022-07-06T12:16:31;24.70;96.90
16076;DHT22;8142;48.242;11.644;2022-07-06T12:18:57;24.70;93.70
16076;DHT22;8142;48.242;11.644;2022-07-06T12:21:23;24.70;92.40
16076;DHT22;8142;48.242;11.644;2022-07-06T12:23:50;24.70;92.80
16076;DHT22;8142;48.242;11.644;2022-07-06T12:26:21;24.70;92.60
16076;DHT22;8142;48.242;11.644;2022-07-06T12:29:04;24.70;92.40
16076;DHT22;8142;48.242;11.644;2022-07-06T12:34:17;24.70;92.50
16076;DHT22;8142;48.242;11.644;2022-07-06T12:36:48;24.70;92.80
16076;DHT22;8142;48.242;11.644;2022-07-06T12:39:16;24.70;92.20
16076;DHT22;8142;48.242;11.644;2022-07-06T12:41:48;24.70;92.60
16076;DHT22;8142;48.242;11.644;2022-07-06T12:44:20;24.70;93.40
16076;DHT22;8142;48.242;11.644;2022-07-06T12:46:48;24.60;95.40
16076;DHT22;8142;48.242;11.644;2022-07-06T12:49:16;24.60;93.30
16076;DHT22;8142;48.242;11.644;2022-07-06T12:51:50;24.60;91.80
16076;DHT22;8142;48.242;11.644;2022-07-06T12:54:17;24.50;92.50
16076;DHT22;8142;48.242;11.644;2022-07-06T12:57:04;24.50;92.60
16076;DHT22;8142;48.242;11.644;2022-07-06T12:59:42;24.50;91.80
16076;DHT22;8142;48.242;11.644;2022-07-06T13:02:31;24.50;92.00
16076;DHT22;8142;48.242;11.644;2022-07-06T13:04:57;24.50;92.20
16076;DHT22;8142;48.242;11.644;2022-07-06T13:07:25;24.50;92.10
16076;DHT22;8142;48.242;11.644;2022-07-06T13:09:52;24.50;91.80
16076;DHT22;8142;48.242;11.644;2022-07-06T13:12:18;24.50;92.00
16076;DHT22;8142;48.242;11.644;2022-07-06T13:14:44;24.50;93.60
16076;DHT22;8142;48.242;11.644;2022-07-06T13:17:10;24.50;95.70
16076;DHT22;8142;48.242;11.644;2022-07-06T13:19:38;24.50;92.10
16076;DHT22;8142;48.242;11.644;2022-07-06T13:22:04;24.50;91.20
16076;DHT22;8142;48.242;11.644;2022-07-06T13:24:30;24.40;91.30
16076;DHT22;8142;48.242;11.644;2022-07-06T13:26:57;24.40;91.40
16076;DHT22;8142;48.242;11.644;2022-07-06T13:29:23;24.40;91.40
16076;DHT22;8142;48.242;11.644;2022-07-06T13:31:49;24.40;91.70
16076;DHT22;8142;48.242;11.644;2022-07-06T13:34:15;24.40;90.70
16076;DHT22;8142;48.242;11.644;2022-07-06T13:36:41;24.40;90.80
16076;DHT22;8142;48.242;11.644;2022-07-06T13:39:07;24.30;90.90
16076;DHT22;8142;48.242;11.644;2022-07-06T13:41:34;24.20;91.00
16076;DHT22;8142;48.242;11.644;2022-07-06T13:44:00;24.20;91.70
16076;DHT22;8142;48.242;11.644;2022-07-06T13:46:27;24.20;93.00
16076;DHT22;8142;48.242;11.644;2022-07-06T13:48:53;24.20;92.50
16076;DHT22;8142;48.242;11.644;2022-07-06T13:51:19;24.20;91.70
16076;DHT22;8142;48.242;11.644;2022-07-06T13:53:45;24.10;91.40
16076;DHT22;8142;48.242;11.644;2022-07-06T13:56:12;24.10;91.20
16076;DHT22;8142;48.242;11.644;2022-07-06T13:58:38;24.20;92.30
16076;DHT22;8142;48.242;11.644;2022-07-06T14:01:04;24.20;92.20
16076;DHT22;8142;48.242;11.644;2022-07-06T14:03:31;24.20;92.00
16076;DHT22;8142;48.242;11.644;2022-07-06T14:05:58;24.20;91.60
16076;DHT22;8142;48.242;11.644;2022-07-06T14:08:26;24.20;91.00
16076;DHT22;8142;48.242;11.644;2022-07-06T14:10:53;24.20;91.20
16076;DHT22;8142;48.242;11.644;2022-07-06T14:13:20;24.20;91.30
16076;DHT22;8142;48.242;11.644;2022-07-06T14:15:47;24.20;90.90
16076;DHT22;8142;48.242;11.644;2022-07-06T14:18:13;24.20;90.90
16076;DHT22;8142;48.242;11.644;2022-07-06T14:20:40;24.20;91.30
16076;DHT22;8142;48.242;11.644;2022-07-06T14:23:07;24.20;90.50
16076;DHT22;8142;48.242;11.644;2022-07-06T14:25:34;24.20;89.90
16076;DHT22;8142;48.242;11.644;2022-07-06T14:28:00;24.20;90.10
16076;DHT22;8142;48.242;11.644;2022-07-06T14:30:27;24.30;90.50
16076;DHT22;8142;48.242;11.644;2022-07-06T14:32:53;24.30;90.90
16076;DHT22;8142;48.242;11.644;2022-07-06T14:35:19;24.30;91.00
16076;DHT22;8142;48.242;11.644;2022-07-06T14:37:47;24.30;90.80
16076;DHT22;8142;48.242;11.644;2022-07-06T14:40:13;24.30;90.80
16076;DHT22;8142;48.242;11.644;2022-07-06T14:42:39;24.30;91.10
16076;DHT22;8142;48.242;11.644;2022-07-06T14:45:05;24.30;90.70
16076;DHT22;8142;48.242;11.644;2022-07-06T14:47:32;24.30;90.40
16076;DHT22;8142;48.242;11.644;2022-07-06T14:49:58;24.30;90.30
16076;DHT22;8142;48.242;11.644;2022-07-06T14:52:24;24.30;90.30
16076;DHT22;8142;48.242;11.644;2022-07-06T14:54:50;24.30;89.40
16076;DHT22;8142;48.242;11.644;2022-07-06T14:57:15;24.40;90.00
16076;DHT22;8142;48.242;11.644;2022-07-06T14:59:41;24.40;89.00
16076;DHT22;8142;48.242;11.644;2022-07-06T15:02:07;24.30;88.00
16076;DHT22;8142;48.242;11.644;2022-07-06T15:04:33;24.40;89.10
16076;DHT22;8142;48.242;11.644;2022-07-06T15:06:59;24.30;90.10
16076;DHT22;8142;48.242;11.644;2022-07-06T15:09:25;24.30;90.10
16076;DHT22;8142;48.242;11.644;2022-07-06T15:11:54;24.20;88.60
16076;DHT22;8142;48.242;11.644;2022-07-06T15:14:20;24.20;87.60
16076;DHT22;8142;48.242;11.644;2022-07-06T15:16:46;24.10;88.40
16076;DHT22;8142;48.242;11.644;2022-07-06T15:19:12;24.10;88.90
16076;DHT22;8142;48.242;11.644;2022-07-06T15:21:38;24.00;90.00
16076;DHT22;8142;48.242;11.644;2022-07-06T15:24:04;23.90;89.60
16076;DHT22;8142;48.242;11.644;2022-07-06T15:26:30;23.80;90.10
16076;DHT22;8142;48.242;11.644;2022-07-06T15:28:57;23.80;90.60
16076;DHT22;8142;48.242;11.644;2022-07-06T15:31:23;23.70;91.50
16076;DHT22;8142;48.242;11.644;2022-07-06T15:33:49;23.60;90.30
16076;DHT22;8142;48.242;11.644;2022-07-06T15:36:15;23.60;90.40
16076;DHT22;8142;48.242;11.644;2022-07-06T15:38:41;23.60;90.40
16076;DHT22;8142;48.242;11.644;2022-07-06T15:41:07;23.60;90.70
16076;DHT22;8142;48.242;11.644;2022-07-06T15:43:33;23.60;90.20
16076;DHT22;8142;48.242;11.644;2022-07-06T15:46:01;23.70;89.40
16076;DHT22;8142;48.242;11.644;2022-07-06T15:48:28;23.70;91.20